createdAt,value
2018-12-14T00:02:13.555Z,7.93
2018-12-14T00:04:40.983Z,7.20
2018-12-14T00:07:08.473Z,7.07
2018-12-14T00:09:35.892Z,6.77
2018-12-14T00:12:03.334Z,6.87
2018-12-14T00:14:30.798Z,6.80
2018-12-14T00:16:59.422Z,6.60
2018-12-14T00:19:26.855Z,6.47
2018-12-14T00:21:54.308Z,6.87
2018-12-14T00:24:21.768Z,7.57
2018-12-14T00:26:49.195Z,6.27
2018-12-14T00:29:16.627Z,6.53
2018-12-14T00:31:44.042Z,7.13
2018-12-14T00:34:11.506Z,7.67
2018-12-14T00:36:38.937Z,7.13
2018-12-14T00:39:07.420Z,6.37
2018-12-14T00:41:34.968Z,6.03
2018-12-14T00:44:02.399Z,7.37
2018-12-14T00:46:29.833Z,6.73
2018-12-14T00:48:57.281Z,7.03
2018-12-14T00:51:24.729Z,6.62
2018-12-14T00:53:52.180Z,5.77
2018-12-14T00:56:19.604Z,7.20
2018-12-14T00:58:47.117Z,7.20
2018-12-14T01:01:14.531Z,6.57
2018-12-14T01:03:41.961Z,7.70
2018-12-14T01:06:09.448Z,6.57
2018-12-14T01:08:36.963Z,6.70
2018-12-14T01:11:04.413Z,6.53
2018-12-14T01:13:31.877Z,8.13
2018-12-14T01:15:59.334Z,7.27
2018-12-14T01:18:26.796Z,7.43
2018-12-14T01:20:54.245Z,7.87
2018-12-14T01:23:21.727Z,5.93
2018-12-14T01:25:49.193Z,5.43
2018-12-14T01:28:16.637Z,6.37
2018-12-14T01:30:44.093Z,6.57
2018-12-14T01:33:11.507Z,5.87
2018-12-14T01:35:38.939Z,6.53
2018-12-14T01:38:06.375Z,4.87
2018-12-14T01:40:35.048Z,5.50
2018-12-14T01:43:02.567Z,7.73
2018-12-14T01:45:30.000Z,3.35
2018-12-14T01:47:57.430Z,3.40
2018-12-14T01:50:24.870Z,6.77
2018-12-14T01:52:52.350Z,5.03
2018-12-14T01:55:19.785Z,4.93
2018-12-14T01:57:47.257Z,7.03
2018-12-14T02:00:14.682Z,5.70
2018-12-14T02:02:42.689Z,6.63
2018-12-14T02:05:10.151Z,6.80
2018-12-14T02:07:37.567Z,6.60
2018-12-14T02:10:04.996Z,3.17
2018-12-14T02:12:32.442Z,7.10
2018-12-14T02:14:59.883Z,6.43
2018-12-14T02:17:27.325Z,6.85
2018-12-14T02:19:54.737Z,6.57
2018-12-14T02:22:22.198Z,6.87
2018-12-14T02:24:49.650Z,6.63
2018-12-14T02:27:17.136Z,6.10
2018-12-14T02:29:44.586Z,7.17
2018-12-14T02:32:12.021Z,7.47
2018-12-14T02:34:39.446Z,6.55
2018-12-14T02:37:06.881Z,6.33
2018-12-14T02:39:34.346Z,5.15
2018-12-14T02:42:01.809Z,6.67
2018-12-14T02:44:29.255Z,7.07
2018-12-14T02:46:56.717Z,6.33
2018-12-14T02:49:24.124Z,7.85
2018-12-14T02:51:51.585Z,7.80
2018-12-14T02:54:19.030Z,8.37
2018-12-14T02:56:46.519Z,7.03
2018-12-14T02:59:13.953Z,6.87
2018-12-14T03:01:41.433Z,7.90
2018-12-14T03:04:08.897Z,6.73
2018-12-14T03:06:36.350Z,8.43
2018-12-14T03:09:03.789Z,6.30
2018-12-14T03:11:31.242Z,7.53
2018-12-14T03:13:58.898Z,6.67
2018-12-14T03:16:26.409Z,7.65
2018-12-14T03:18:53.823Z,7.57
2018-12-14T03:21:21.247Z,6.63
2018-12-14T03:23:48.697Z,7.33
2018-12-14T03:26:16.124Z,6.80
2018-12-14T03:28:43.611Z,7.57
2018-12-14T03:31:11.068Z,6.27
2018-12-14T03:33:38.490Z,6.43
2018-12-14T03:36:05.902Z,5.83
2018-12-14T03:38:33.341Z,6.17
2018-12-14T03:41:00.782Z,7.03
2018-12-14T03:43:28.237Z,7.00
2018-12-14T03:45:55.693Z,7.07
2018-12-14T03:48:23.133Z,7.40
2018-12-14T03:50:50.582Z,7.07
2018-12-14T03:53:18.530Z,6.93
2018-12-14T03:55:45.943Z,6.90
2018-12-14T03:58:13.380Z,7.73
2018-12-14T04:00:40.813Z,6.77
2018-12-14T04:03:08.279Z,7.47
2018-12-14T04:05:35.735Z,7.18
2018-12-14T04:08:03.185Z,7.17
2018-12-14T04:10:30.714Z,7.47
2018-12-14T04:12:58.071Z,7.10
2018-12-14T04:15:25.485Z,6.67
2018-12-14T04:17:52.911Z,6.60
2018-12-14T04:20:20.347Z,6.33
2018-12-14T04:22:47.791Z,6.10
2018-12-14T04:25:15.218Z,7.10
2018-12-14T04:27:42.671Z,6.93
2018-12-14T04:30:10.099Z,6.93
2018-12-14T04:32:37.519Z,7.55
2018-12-14T04:35:04.985Z,7.43
2018-12-14T04:37:32.431Z,7.30
2018-12-14T04:39:59.859Z,7.80
2018-12-14T04:42:27.291Z,8.27
2018-12-14T04:44:54.715Z,7.50
2018-12-14T04:47:22.167Z,7.83
2018-12-14T04:49:49.587Z,7.60
2018-12-14T04:52:17.076Z,7.97
2018-12-14T04:54:44.501Z,7.18
2018-12-14T04:57:11.949Z,6.37
2018-12-14T04:59:39.399Z,7.30
2018-12-14T05:02:06.866Z,6.97
2018-12-14T05:04:34.303Z,7.80
2018-12-14T05:07:01.723Z,7.30
2018-12-14T05:09:29.171Z,7.68
2018-12-14T05:11:56.629Z,5.37
2018-12-14T05:14:24.074Z,7.40
2018-12-14T05:16:51.525Z,8.38
2018-12-14T05:19:18.992Z,8.00
2018-12-14T05:21:46.439Z,7.75
2018-12-14T05:24:13.859Z,8.33
2018-12-14T05:26:41.297Z,8.37
2018-12-14T05:29:08.746Z,8.27
2018-12-14T05:31:36.173Z,8.20
2018-12-14T05:34:03.618Z,6.57
2018-12-14T05:36:31.102Z,7.97
2018-12-14T05:38:58.551Z,8.40
2018-12-14T05:41:25.994Z,7.35
2018-12-14T05:43:53.430Z,8.15
2018-12-14T05:46:20.895Z,7.73
2018-12-14T05:48:48.336Z,8.37
2018-12-14T05:51:15.793Z,8.80
2018-12-14T05:53:43.246Z,8.40
2018-12-14T05:56:10.683Z,7.83
2018-12-14T05:58:38.134Z,8.57
2018-12-14T06:01:05.798Z,8.10
2018-12-14T06:03:33.232Z,8.63
2018-12-14T06:06:00.670Z,8.13
2018-12-14T06:08:28.113Z,7.77
2018-12-14T06:10:55.533Z,6.57
2018-12-14T06:13:22.982Z,7.43
2018-12-14T06:15:50.454Z,8.60
2018-12-14T06:18:17.890Z,7.77
2018-12-14T06:20:45.314Z,8.03
2018-12-14T06:23:12.795Z,8.50
2018-12-14T06:25:40.281Z,7.97
2018-12-14T06:28:07.702Z,8.20
2018-12-14T06:30:35.156Z,9.93
2018-12-14T06:33:02.617Z,8.60
2018-12-14T06:35:30.081Z,6.32
2018-12-14T06:37:57.503Z,7.25
2018-12-14T06:40:24.957Z,8.30
2018-12-14T06:42:52.387Z,8.07
2018-12-14T06:45:20.768Z,8.20
2018-12-14T06:47:48.309Z,6.53
2018-12-14T06:50:15.773Z,8.27
2018-12-14T06:52:43.239Z,9.33
2018-12-14T06:55:10.695Z,7.30
2018-12-14T06:57:38.154Z,8.53
2018-12-14T07:00:06.850Z,8.50
2018-12-14T07:02:33.029Z,9.20
2018-12-14T07:05:00.469Z,8.13
2018-12-14T07:07:27.946Z,8.57
2018-12-14T07:09:55.369Z,8.77
2018-12-14T07:12:22.813Z,8.37
2018-12-14T07:14:50.246Z,8.30
2018-12-14T07:17:18.582Z,8.17
2018-12-14T07:19:46.049Z,8.33
2018-12-14T07:22:13.483Z,9.30
2018-12-14T07:24:40.937Z,8.50
2018-12-14T07:27:08.390Z,7.97
2018-12-14T07:29:35.872Z,7.07
2018-12-14T07:32:03.331Z,9.10
2018-12-14T07:34:30.785Z,9.17
2018-12-14T07:36:58.224Z,8.73
2018-12-14T07:39:25.655Z,6.97
2018-12-14T07:41:53.098Z,8.17
2018-12-14T07:44:20.591Z,7.90
2018-12-14T07:46:48.026Z,8.13
2018-12-14T07:49:15.446Z,8.80
2018-12-14T07:51:42.899Z,8.40
2018-12-14T07:54:10.334Z,7.93
2018-12-14T07:56:37.805Z,9.03
2018-12-14T07:59:05.260Z,9.53
2018-12-14T08:01:32.683Z,8.98
2018-12-14T08:04:00.136Z,8.70
2018-12-14T08:06:27.625Z,9.60
2018-12-14T08:08:55.080Z,8.03
2018-12-14T08:11:22.533Z,9.43
2018-12-14T08:13:51.085Z,8.50
2018-12-14T08:16:18.514Z,8.60
2018-12-14T08:18:45.986Z,10.20
2018-12-14T08:21:13.432Z,8.50
2018-12-14T08:23:40.887Z,7.90
2018-12-14T08:26:08.328Z,8.97
2018-12-14T08:28:35.747Z,8.87
2018-12-14T08:31:03.244Z,8.93
2018-12-14T08:33:30.661Z,7.15
2018-12-14T08:35:58.095Z,7.63
2018-12-14T08:38:25.523Z,8.07
2018-12-14T08:40:52.993Z,5.60
2018-12-14T08:43:20.407Z,7.47
2018-12-14T08:45:47.840Z,8.17
2018-12-14T08:48:15.380Z,6.77
2018-12-14T08:50:42.918Z,7.70
2018-12-14T08:53:10.370Z,8.03
2018-12-14T08:55:37.802Z,7.57
2018-12-14T08:58:05.234Z,8.30
2018-12-14T09:00:32.710Z,8.40
2018-12-14T09:03:00.131Z,8.83
2018-12-14T09:05:27.585Z,8.53
2018-12-14T09:07:55.025Z,7.50
2018-12-14T09:10:22.491Z,6.60
2018-12-14T09:12:49.914Z,8.13
2018-12-14T09:15:18.326Z,7.00
2018-12-14T09:17:45.753Z,6.70
2018-12-14T09:20:13.203Z,7.67
2018-12-14T09:22:40.662Z,8.10
2018-12-14T09:25:08.103Z,8.07
2018-12-14T09:27:35.617Z,7.00
2018-12-14T09:30:03.032Z,7.63
2018-12-14T09:32:30.496Z,7.87
2018-12-14T09:34:57.949Z,6.93
2018-12-14T09:37:25.398Z,8.32
2018-12-14T09:39:52.865Z,7.43
2018-12-14T09:42:20.313Z,7.13
2018-12-14T09:44:47.762Z,7.80
2018-12-14T09:47:15.203Z,7.80
2018-12-14T09:49:42.663Z,7.73
2018-12-14T09:52:10.114Z,7.57
2018-12-14T09:54:37.566Z,7.65
2018-12-14T09:57:04.998Z,7.07
2018-12-14T09:59:32.439Z,7.70
2018-12-14T10:01:59.895Z,7.63
2018-12-14T10:04:27.344Z,7.93
2018-12-14T10:06:54.797Z,7.67
2018-12-14T10:09:22.232Z,7.50
2018-12-14T10:11:55.018Z,7.07
2018-12-14T10:14:17.158Z,7.70
2018-12-14T10:16:44.602Z,6.87
2018-12-14T10:19:12.038Z,7.90
2018-12-14T10:21:39.494Z,7.37
2018-12-14T10:24:06.995Z,7.00
2018-12-14T10:26:34.450Z,7.70
2018-12-14T10:29:01.896Z,7.57
2018-12-14T10:31:29.335Z,6.05
2018-12-14T10:33:56.794Z,6.47
2018-12-14T10:36:24.249Z,8.10
2018-12-14T10:38:51.683Z,7.10
2018-12-14T10:41:19.138Z,7.03
2018-12-14T10:43:46.588Z,7.13
2018-12-14T10:46:14.031Z,6.50
2018-12-14T10:48:41.453Z,7.37
2018-12-14T10:51:08.881Z,7.20
2018-12-14T10:53:36.325Z,7.60
2018-12-14T10:56:03.756Z,6.73
2018-12-14T10:58:31.207Z,6.67
2018-12-14T11:01:19.405Z,7.70
2018-12-14T11:03:46.857Z,6.33
2018-12-14T11:06:14.314Z,6.87
2018-12-14T11:08:42.616Z,6.80
2018-12-14T11:11:10.189Z,5.03
2018-12-14T11:13:37.646Z,6.30
2018-12-14T11:16:05.088Z,6.63
2018-12-14T11:18:32.550Z,6.50
2018-12-14T11:20:59.984Z,7.10
2018-12-14T11:23:27.428Z,6.90
2018-12-14T11:25:54.859Z,6.90
2018-12-14T11:28:22.272Z,7.17
2018-12-14T11:30:49.727Z,6.90
2018-12-14T11:33:17.142Z,6.20
2018-12-14T11:35:44.574Z,7.10
2018-12-14T11:38:12.024Z,7.83
2018-12-14T11:40:39.456Z,7.27
2018-12-14T11:43:07.805Z,7.90
2018-12-14T11:45:35.340Z,7.60
2018-12-14T11:48:02.799Z,6.87
2018-12-14T11:50:30.249Z,7.60
2018-12-14T11:52:57.706Z,8.00
2018-12-14T11:55:25.155Z,7.43
2018-12-14T11:57:52.606Z,6.57
2018-12-14T12:00:20.047Z,8.33
2018-12-14T12:02:47.483Z,6.43
2018-12-14T12:05:15.757Z,6.27
2018-12-14T12:07:43.259Z,6.80
2018-12-14T12:10:10.688Z,6.90
2018-12-14T12:12:38.145Z,6.70
2018-12-14T12:15:05.564Z,7.37
2018-12-14T12:17:33.000Z,6.55
2018-12-14T12:20:00.459Z,7.03
2018-12-14T12:22:27.899Z,7.47
2018-12-14T12:24:55.345Z,6.90
2018-12-14T12:27:22.786Z,6.28
2018-12-14T12:29:50.216Z,7.93
2018-12-14T12:32:17.634Z,6.60
2018-12-14T12:34:45.085Z,6.97
2018-12-14T12:37:12.543Z,6.40
2018-12-14T12:39:39.971Z,7.90
2018-12-14T12:42:07.409Z,6.97
2018-12-14T12:44:34.857Z,5.83
2018-12-14T12:47:02.293Z,6.27
2018-12-14T12:49:29.750Z,6.75
2018-12-14T12:51:57.198Z,6.87
2018-12-14T12:54:24.663Z,7.17
2018-12-14T12:56:52.080Z,7.77
2018-12-14T12:59:19.535Z,7.30
2018-12-14T13:01:46.954Z,6.27
2018-12-14T13:04:14.367Z,7.37
2018-12-14T13:06:41.879Z,7.30
2018-12-14T13:09:09.308Z,8.10
2018-12-14T13:11:36.717Z,5.87
2018-12-14T13:14:05.124Z,6.93
2018-12-14T13:16:32.637Z,7.67
2018-12-14T13:19:00.106Z,6.87
2018-12-14T13:21:27.542Z,7.83
2018-12-14T13:23:54.983Z,7.50
2018-12-14T13:26:23.215Z,8.10
2018-12-14T13:28:51.830Z,7.57
2018-12-14T13:31:18.643Z,7.27
2018-12-14T13:33:46.071Z,8.20
2018-12-14T13:36:13.546Z,8.10
2018-12-14T13:38:41.840Z,8.07
2018-12-14T13:41:09.302Z,8.27
2018-12-14T13:43:36.734Z,8.03
2018-12-14T13:46:04.205Z,7.43
2018-12-14T13:48:31.655Z,8.03
2018-12-14T13:50:59.106Z,7.27
2018-12-14T13:53:26.568Z,8.27
2018-12-14T13:55:54.023Z,7.90
2018-12-14T13:58:21.455Z,7.73
2018-12-14T14:00:50.228Z,7.53
2018-12-14T14:03:16.352Z,8.20
2018-12-14T14:05:43.801Z,8.27
2018-12-14T14:08:11.277Z,7.13
2018-12-14T14:10:38.719Z,7.87
2018-12-14T14:13:06.159Z,8.30
2018-12-14T14:15:33.619Z,7.00
2018-12-14T14:18:01.048Z,8.30
2018-12-14T14:20:28.475Z,8.80
2018-12-14T14:22:55.951Z,7.30
2018-12-14T14:25:23.388Z,8.43
2018-12-14T14:27:50.875Z,7.63
2018-12-14T14:30:18.297Z,7.03
2018-12-14T14:32:45.760Z,8.80
2018-12-14T14:35:13.241Z,7.80
2018-12-14T14:37:40.700Z,8.80
2018-12-14T14:40:08.218Z,8.27
2018-12-14T14:42:35.710Z,8.43
2018-12-14T14:45:04.218Z,8.27
2018-12-14T14:47:31.733Z,7.15
2018-12-14T14:49:59.180Z,8.37
2018-12-14T14:52:26.599Z,8.27
2018-12-14T14:54:54.062Z,8.63
2018-12-14T14:57:21.490Z,8.60
2018-12-14T14:59:48.975Z,7.03
2018-12-14T15:02:16.424Z,7.17
2018-12-14T15:04:43.890Z,8.13
2018-12-14T15:07:11.329Z,7.87
2018-12-14T15:09:38.745Z,7.70
2018-12-14T15:12:06.203Z,8.30
2018-12-14T15:14:33.626Z,8.00
2018-12-14T15:17:01.077Z,7.83
2018-12-14T15:19:28.501Z,8.53
2018-12-14T15:21:55.951Z,7.73
2018-12-14T15:24:23.380Z,7.97
2018-12-14T15:26:50.836Z,9.00
2018-12-14T15:29:18.677Z,8.57
2018-12-14T15:31:46.140Z,7.90
2018-12-14T15:34:14.406Z,7.85
2018-12-14T15:36:41.036Z,8.03
2018-12-14T15:39:08.457Z,7.20
2018-12-14T15:41:35.895Z,8.40
2018-12-14T15:44:03.343Z,8.70
2018-12-14T15:46:30.766Z,7.80
2018-12-14T15:48:58.222Z,9.00
2018-12-14T15:51:25.674Z,7.90
2018-12-14T15:53:53.142Z,8.97
2018-12-14T15:56:20.597Z,8.52
2018-12-14T15:58:48.057Z,8.20
2018-12-14T16:01:15.501Z,8.93
2018-12-14T16:03:42.957Z,9.37
2018-12-14T16:06:10.429Z,9.83
2018-12-14T16:08:37.916Z,8.80
2018-12-14T16:11:05.361Z,8.50
2018-12-14T16:13:32.842Z,8.40
2018-12-14T16:16:00.299Z,8.57
2018-12-14T16:18:29.669Z,8.70
2018-12-14T16:20:57.166Z,8.10
2018-12-14T16:23:24.604Z,8.07
2018-12-14T16:25:52.061Z,8.93
2018-12-14T16:28:19.479Z,8.90
2018-12-14T16:30:48.246Z,8.27
2018-12-14T16:33:15.878Z,8.27
2018-12-14T16:35:43.416Z,8.70
2018-12-14T16:38:10.993Z,8.83
2018-12-14T16:40:38.568Z,9.20
2018-12-14T16:43:06.032Z,9.00
2018-12-14T16:45:33.575Z,9.30
2018-12-14T16:48:01.049Z,8.63
2018-12-14T16:50:28.481Z,8.77
2018-12-14T16:52:55.947Z,8.50
2018-12-14T16:55:23.405Z,9.82
2018-12-14T16:57:50.883Z,10.30
2018-12-14T17:00:18.320Z,10.27
2018-12-14T17:02:45.803Z,9.47
2018-12-14T17:05:13.259Z,10.00
2018-12-14T17:07:40.703Z,9.27
2018-12-14T17:10:08.147Z,9.43
2018-12-14T17:12:35.610Z,9.23
2018-12-14T17:15:03.063Z,10.13
2018-12-14T17:17:30.511Z,9.48
2018-12-14T17:19:57.956Z,9.17
2018-12-14T17:22:25.417Z,9.83
2018-12-14T17:24:52.881Z,9.93
2018-12-14T17:27:20.345Z,9.73
2018-12-14T17:29:47.755Z,9.77
2018-12-14T17:32:15.197Z,9.90
2018-12-14T17:34:43.041Z,11.57
2018-12-14T17:37:10.492Z,10.37
2018-12-14T17:39:37.970Z,10.73
2018-12-14T17:42:05.402Z,9.97
2018-12-14T17:44:33.578Z,9.73
2018-12-14T17:47:01.026Z,10.43
2018-12-14T17:49:28.492Z,9.55
2018-12-14T17:51:55.933Z,10.87
2018-12-14T17:54:24.202Z,9.93
2018-12-14T17:56:51.784Z,10.07
2018-12-14T17:59:19.225Z,10.70
2018-12-14T18:01:46.685Z,10.73
2018-12-14T18:04:14.137Z,11.37
2018-12-14T18:06:41.608Z,10.37
2018-12-14T18:09:09.027Z,11.07
2018-12-14T18:11:36.497Z,9.60
2018-12-14T18:14:03.952Z,10.17
2018-12-14T18:16:31.376Z,10.23
2018-12-14T18:18:58.886Z,10.37
2018-12-14T18:21:26.346Z,9.82
2018-12-14T18:23:53.802Z,9.90
2018-12-14T18:26:21.272Z,10.77
2018-12-14T18:28:48.706Z,10.60
2018-12-14T18:31:16.160Z,10.23
2018-12-14T18:33:43.622Z,10.85
2018-12-14T18:36:11.105Z,9.50
2018-12-14T18:38:38.586Z,9.50
2018-12-14T18:41:06.050Z,9.57
2018-12-14T18:43:33.490Z,9.50
2018-12-14T18:46:00.961Z,9.27
2018-12-14T18:48:28.384Z,8.90
2018-12-14T18:50:55.832Z,9.93
2018-12-14T18:53:23.256Z,9.40
2018-12-14T18:55:50.685Z,8.00
2018-12-14T18:58:18.194Z,6.97
2018-12-14T19:00:45.666Z,6.57
2018-12-14T19:03:13.119Z,7.20
2018-12-14T19:05:40.572Z,5.80
2018-12-14T19:08:08.122Z,6.80
2018-12-14T19:10:35.568Z,7.67
2018-12-14T19:13:03.022Z,7.77
2018-12-14T19:15:30.459Z,7.87
2018-12-14T19:17:57.919Z,9.00
2018-12-14T19:20:25.357Z,9.30
2018-12-14T19:22:52.794Z,6.67
2018-12-14T19:25:20.256Z,5.00
2018-12-14T19:27:47.693Z,5.33
2018-12-14T19:30:17.414Z,5.20
2018-12-14T19:32:44.911Z,4.93
2018-12-14T19:35:12.368Z,5.27
2018-12-14T19:37:39.792Z,5.63
2018-12-14T19:40:07.237Z,5.30
2018-12-14T19:42:34.672Z,4.82
2018-12-14T19:45:02.134Z,5.40
2018-12-14T19:47:29.568Z,4.82
2018-12-14T19:49:57.013Z,4.63
2018-12-14T19:52:24.446Z,5.00
2018-12-14T19:54:53.018Z,4.87
2018-12-14T19:57:20.578Z,10.10
2018-12-14T19:59:48.009Z,6.63
2018-12-14T20:02:15.453Z,5.10
2018-12-14T20:04:42.923Z,5.40
2018-12-14T20:07:10.404Z,5.03
2018-12-14T20:09:37.840Z,5.33
2018-12-14T20:12:05.277Z,5.13
2018-12-14T20:14:32.699Z,4.90
2018-12-14T20:17:00.159Z,5.13
2018-12-14T20:19:27.661Z,4.82
2018-12-14T20:21:55.133Z,5.00
2018-12-14T20:24:22.628Z,5.10
2018-12-14T20:26:50.055Z,5.30
2018-12-14T20:29:17.499Z,6.20
2018-12-14T20:31:44.975Z,7.57
2018-12-14T20:34:12.409Z,5.50
2018-12-14T20:36:39.880Z,5.17
2018-12-14T20:39:07.338Z,5.77
2018-12-14T20:41:34.797Z,5.30
2018-12-14T20:44:02.285Z,5.40
2018-12-14T20:46:29.711Z,5.20
2018-12-14T20:48:57.141Z,5.80
2018-12-14T20:51:24.585Z,5.93
2018-12-14T20:53:52.020Z,5.43
2018-12-14T20:56:19.476Z,5.43
2018-12-14T20:58:46.970Z,5.97
2018-12-14T21:01:14.434Z,6.03
2018-12-14T21:03:42.131Z,5.53
2018-12-14T21:06:09.591Z,5.60
2018-12-14T21:08:37.126Z,5.17
2018-12-14T21:11:04.598Z,5.40
2018-12-14T21:13:32.060Z,5.25
2018-12-14T21:15:59.567Z,5.27
2018-12-14T21:18:27.028Z,4.77
2018-12-14T21:20:54.465Z,5.57
2018-12-14T21:23:21.906Z,5.53
2018-12-14T21:25:49.349Z,5.13
2018-12-14T21:28:16.832Z,5.00
2018-12-14T21:30:44.275Z,5.30
2018-12-14T21:33:11.752Z,5.30
2018-12-14T21:35:39.215Z,5.70
2018-12-14T21:38:06.647Z,5.70
2018-12-14T21:40:34.192Z,5.03
2018-12-14T21:43:01.652Z,5.30
2018-12-14T21:45:29.113Z,5.53
2018-12-14T21:47:56.562Z,5.50
2018-12-14T21:50:23.994Z,8.77
2018-12-14T21:52:51.435Z,5.40
2018-12-14T21:55:18.859Z,6.47
2018-12-14T21:57:46.500Z,5.57
2018-12-14T22:00:15.218Z,5.90
2018-12-14T22:02:42.718Z,5.40
2018-12-14T22:05:10.160Z,5.87
2018-12-14T22:07:37.622Z,5.82
2018-12-14T22:10:05.077Z,5.80
2018-12-14T22:12:32.549Z,6.13
2018-12-14T22:15:01.246Z,6.07
2018-12-14T22:17:27.442Z,6.05
2018-12-14T22:19:54.948Z,6.10
2018-12-14T22:22:22.425Z,5.60
2018-12-14T22:24:49.917Z,5.93
2018-12-14T22:27:17.333Z,5.93
2018-12-14T22:29:44.779Z,5.27
2018-12-14T22:32:12.237Z,5.47
2018-12-14T22:34:39.665Z,5.75
2018-12-14T22:37:07.180Z,6.60
2018-12-14T22:39:34.670Z,7.57
2018-12-14T22:42:02.106Z,6.80
2018-12-14T22:44:30.660Z,8.07
2018-12-14T22:46:58.182Z,5.97
2018-12-14T22:49:25.644Z,7.18
2018-12-14T22:51:53.086Z,6.97
2018-12-14T22:54:20.546Z,6.07
2018-12-14T22:56:48.039Z,5.40
2018-12-14T22:59:15.493Z,5.40
2018-12-14T23:01:42.959Z,5.47
2018-12-14T23:04:10.387Z,5.43
2018-12-14T23:06:37.827Z,5.60
2018-12-14T23:09:05.246Z,5.90
2018-12-14T23:11:32.720Z,5.77
2018-12-14T23:14:00.265Z,4.07
2018-12-14T23:16:27.684Z,4.68
2018-12-14T23:18:55.133Z,5.20
2018-12-14T23:21:22.632Z,5.97
2018-12-14T23:23:50.095Z,6.03
2018-12-14T23:26:17.639Z,3.67
2018-12-14T23:28:45.084Z,6.43
2018-12-14T23:31:13.417Z,5.00
2018-12-14T23:33:40.896Z,4.90
2018-12-14T23:36:08.342Z,5.03
2018-12-14T23:38:35.843Z,4.57
2018-12-14T23:41:03.336Z,4.77
2018-12-14T23:43:30.773Z,4.73
2018-12-14T23:45:58.356Z,4.20
2018-12-14T23:48:25.920Z,4.00
2018-12-14T23:50:53.356Z,5.23
2018-12-14T23:53:20.805Z,5.55
2018-12-14T23:55:48.315Z,4.53
2018-12-14T23:58:15.748Z,8.33
